Time,TemperatureF,DewpointF,PressureIn,WindDirection,WindDirectionDegrees,WindSpeedMPH,WindSpeedGustMPH,Humidity,HourlyPrecipIn,Conditions,Clouds,dailyrainin,SoftwareType,DateUTC
2013-04-26 00:04:00,43.0,34.0,30.27,South,180,0.0,0.0,70,0.00,,,0.00,TxWx,2013-04-26 04:04:00,
2013-04-26 00:09:00,42.0,33.0,30.27,SE,135,0.0,0.0,70,0.00,,,0.00,TxWx,2013-04-26 04:09:00,
2013-04-26 00:14:00,42.0,33.0,30.28,East,90,0.0,0.0,70,0.00,,,0.00,TxWx,2013-04-26 04:14:00,
2013-04-26 00:19:00,42.0,33.0,30.28,ESE,112,0.0,0.0,71,0.00,,,0.00,TxWx,2013-04-26 04:19:00,
2013-04-26 00:24:00,42.0,33.0,30.28,ESE,112,0.0,0.0,71,0.00,,,0.00,TxWx,2013-04-26 04:24:00,
2013-04-26 00:33:00,41.0,33.0,30.28,SE,135,0.0,0.0,72,0.00,,,0.00,TxWx,2013-04-26 04:33:00,
2013-04-26 00:38:00,41.0,33.0,30.28,SE,135,0.0,0.0,73,0.00,,,0.00,TxWx,2013-04-26 04:38:00,
2013-04-26 00:43:00,41.0,34.0,30.28,SSE,157,0.0,0.0,74,0.00,,,0.00,TxWx,2013-04-26 04:43:00,
2013-04-26 00:48:00,41.0,34.0,30.29,ESE,112,0.0,0.0,75,0.00,,,0.00,TxWx,2013-04-26 04:48:00,
2013-04-26 00:53:00,41.0,34.0,30.29,SE,135,0.0,0.0,76,0.00,,,0.00,TxWx,2013-04-26 04:53:00,
2013-04-26 00:58:00,41.0,34.0,30.29,NNW,337,0.0,0.0,76,0.00,,,0.00,TxWx,2013-04-26 04:58:00,
2013-04-26 01:03:00,41.0,34.0,30.28,ENE,67,0.0,0.0,76,0.00,,,0.00,TxWx,2013-04-26 05:03:00,
2013-04-26 01:08:00,41.0,34.0,30.29,ESE,112,0.0,0.0,77,0.00,,,0.00,TxWx,2013-04-26 05:08:00,
2013-04-26 01:14:00,40.0,33.0,30.29,NE,45,0.0,0.0,77,0.00,,,0.00,TxWx,2013-04-26 05:14:00,
2013-04-26 01:19:00,40.0,33.0,30.28,ESE,112,0.0,0.0,77,0.00,,,0.00,TxWx,2013-04-26 05:19:00,
2013-04-26 01:24:00,40.0,33.0,30.29,SSW,202,0.0,0.0,77,0.00,,,0.00,TxWx,2013-04-26 05:24:00,
2013-04-26 01:29:00,40.0,33.0,30.28,North,0,0.0,0.0,77,0.00,,,0.00,TxWx,2013-04-26 05:29:00,
2013-04-26 01:34:00,40.0,33.0,30.28,ENE,67,0.0,0.0,77,0.00,,,0.00,TxWx,2013-04-26 05:34:00,
2013-04-26 01:39:00,40.0,34.0,30.29,NNE,22,0.0,0.0,78,0.00,,,0.00,TxWx,2013-04-26 05:39:00,
2013-04-26 01:45:00,40.0,34.0,30.28,East,90,0.0,0.0,78,0.00,,,0.00,TxWx,2013-04-26 05:45:00,
2013-04-26 01:51:00,40.0,34.0,30.28,ENE,67,0.0,0.0,78,0.00,,,0.00,TxWx,2013-04-26 05:51:00,
2013-04-26 01:56:00,40.0,34.0,30.28,East,90,0.0,0.0,79,0.00,,,0.00,TxWx,2013-04-26 05:56:00,
2013-04-26 02:02:00,39.0,33.0,30.28,East,90,0.0,0.0,80,0.00,,,0.00,TxWx,2013-04-26 06:02:00,
2013-04-26 02:07:00,39.0,34.0,30.29,ESE,112,0.0,0.0,81,0.00,,,0.00,TxWx,2013-04-26 06:07:00,
2013-04-26 02:12:00,39.0,34.0,30.29,ESE,112,0.0,0.0,82,0.00,,,0.00,TxWx,2013-04-26 06:12:00,
2013-04-26 02:17:00,39.0,34.0,30.29,ESE,112,0.0,0.0,82,0.00,,,0.00,TxWx,2013-04-26 06:17:00,
2013-04-26 02:22:00,38.0,33.0,30.29,South,180,0.0,0.0,82,0.00,,,0.00,TxWx,2013-04-26 06:22:00,
2013-04-26 02:27:00,38.0,33.0,30.29,NW,315,0.0,0.0,83,0.00,,,0.00,TxWx,2013-04-26 06:27:00,
2013-04-26 02:32:00,38.0,33.0,30.29,SSE,157,0.0,0.0,83,0.00,,,0.00,TxWx,2013-04-26 06:32:00,
2013-04-26 02:37:00,38.0,33.0,30.29,West,270,0.0,0.0,83,0.00,,,0.00,TxWx,2013-04-26 06:37:00,
2013-04-26 02:42:00,38.0,33.0,30.29,ENE,67,0.0,0.0,83,0.00,,,0.00,TxWx,2013-04-26 06:42:00,
2013-04-26 02:47:00,38.0,33.0,30.29,NE,45,0.0,0.0,83,0.00,,,0.00,TxWx,2013-04-26 06:47:00,
2013-04-26 02:52:00,38.0,33.0,30.29,East,90,0.0,0.0,83,0.00,,,0.00,TxWx,2013-04-26 06:52:00,
2013-04-26 02:57:00,38.0,34.0,30.29,NE,45,0.0,0.0,84,0.00,,,0.00,TxWx,2013-04-26 06:57:00,
2013-04-26 03:02:00,38.0,34.0,30.29,NNE,22,0.0,0.0,85,0.00,,,0.00,TxWx,2013-04-26 07:02:00,
2013-04-26 03:07:00,38.0,34.0,30.29,NE,45,0.0,0.0,85,0.00,,,0.00,TxWx,2013-04-26 07:07:00,
2013-04-26 03:12:00,38.0,34.0,30.29,NE,45,0.0,1.0,86,0.00,,,0.00,TxWx,2013-04-26 07:12:00,
2013-04-26 03:17:00,38.0,34.0,30.29,East,90,0.0,0.0,87,0.00,,,0.00,TxWx,2013-04-26 07:17:00,
2013-04-26 03:22:00,37.0,34.0,30.29,SSW,202,0.0,1.0,88,0.00,,,0.00,TxWx,2013-04-26 07:22:00,
2013-04-26 03:28:00,37.0,34.0,30.29,SSW,202,0.0,0.0,88,0.00,,,0.00,TxWx,2013-04-26 07:28:00,
2013-04-26 03:33:00,37.0,34.0,30.29,NNE,22,0.0,0.0,88,0.00,,,0.00,TxWx,2013-04-26 07:33:00,
2013-04-26 03:38:00,37.0,34.0,30.29,ESE,112,0.0,0.0,89,0.00,,,0.00,TxWx,2013-04-26 07:38:00,
2013-04-26 03:43:00,37.0,34.0,30.29,West,270,0.0,0.0,89,0.00,,,0.00,TxWx,2013-04-26 07:43:00,
2013-04-26 03:48:00,37.0,34.0,30.30,SSE,157,0.0,0.0,89,0.00,,,0.00,TxWx,2013-04-26 07:48:00,
2013-04-26 03:53:00,37.0,34.0,30.30,SSW,202,0.0,0.0,89,0.00,,,0.00,TxWx,2013-04-26 07:53:00,
2013-04-26 03:58:00,37.0,34.0,30.30,SE,135,0.0,0.0,89,0.00,,,0.00,TxWx,2013-04-26 07:58:00,
2013-04-26 04:03:00,37.0,34.0,30.31,ESE,112,0.0,0.0,89,0.00,,,0.00,TxWx,2013-04-26 08:03:00,
2013-04-26 04:08:00,37.0,34.0,30.31,SSE,157,0.0,0.0,89,0.00,,,0.00,TxWx,2013-04-26 08:08:00,
2013-04-26 04:13:00,37.0,34.0,30.31,SSE,157,0.0,0.0,89,0.00,,,0.00,TxWx,2013-04-26 08:13:00,
2013-04-26 04:18:00,37.0,34.0,30.31,ESE,112,0.0,0.0,89,0.00,,,0.00,TxWx,2013-04-26 08:18:00,
2013-04-26 04:23:00,37.0,34.0,30.31,SSE,157,0.0,0.0,89,0.00,,,0.00,TxWx,2013-04-26 08:23:00,
2013-04-26 04:28:00,37.0,34.0,30.32,ESE,112,0.0,0.0,89,0.00,,,0.00,TxWx,2013-04-26 08:28:00,
2013-04-26 04:33:00,37.0,34.0,30.32,SSE,157,0.0,0.0,89,0.00,,,0.00,TxWx,2013-04-26 08:33:00,
2013-04-26 04:39:00,37.0,34.0,30.32,SSE,157,0.0,0.0,90,0.00,,,0.00,TxWx,2013-04-26 08:39:00,
2013-04-26 04:44:00,37.0,34.0,30.33,SSE,157,0.0,0.0,90,0.00,,,0.00,TxWx,2013-04-26 08:44:00,
2013-04-26 04:49:00,37.0,34.0,30.34,South,180,5.0,7.0,90,0.00,,,0.00,TxWx,2013-04-26 08:49:00,
2013-04-26 04:54:00,38.0,35.0,30.34,ESE,112,0.0,0.0,90,0.00,,,0.00,TxWx,2013-04-26 08:54:00,
2013-04-26 04:59:00,38.0,35.0,30.34,NE,45,1.0,2.0,90,0.00,,,0.00,TxWx,2013-04-26 08:59:00,
2013-04-26 05:05:00,38.0,35.0,30.35,NE,45,5.0,5.0,89,0.00,,,0.00,TxWx,2013-04-26 09:05:00,
2013-04-26 05:10:00,37.0,34.0,30.35,NE,45,0.0,0.0,90,0.00,,,0.00,TxWx,2013-04-26 09:10:00,
2013-04-26 05:15:00,37.0,34.0,30.36,NW,315,0.0,0.0,90,0.00,,,0.00,TxWx,2013-04-26 09:15:00,
2013-04-26 05:20:00,37.0,34.0,30.36,South,180,0.0,0.0,90,0.00,,,0.00,TxWx,2013-04-26 09:20:00,
2013-04-26 05:25:00,37.0,34.0,30.37,SSE,157,0.0,0.0,91,0.00,,,0.00,TxWx,2013-04-26 09:25:00,
2013-04-26 05:30:00,37.0,35.0,30.37,ENE,67,0.0,0.0,91,0.00,,,0.00,TxWx,2013-04-26 09:30:00,
2013-04-26 05:35:00,37.0,35.0,30.37,ENE,67,0.0,0.0,91,0.00,,,0.00,TxWx,2013-04-26 09:35:00,
2013-04-26 05:40:00,37.0,35.0,30.37,NNE,22,1.0,2.0,92,0.00,,,0.00,TxWx,2013-04-26 09:40:00,
2013-04-26 05:45:00,37.0,35.0,30.37,NNE,22,0.0,1.0,92,0.00,,,0.00,TxWx,2013-04-26 09:45:00,
2013-04-26 05:50:00,37.0,35.0,30.38,ENE,67,0.0,0.0,92,0.00,,,0.00,TxWx,2013-04-26 09:50:00,
2013-04-26 05:55:00,37.0,35.0,30.38,East,90,0.0,0.0,92,0.00,,,0.00,TxWx,2013-04-26 09:55:00,
2013-04-26 06:00:00,37.0,35.0,30.38,SW,225,0.0,0.0,92,0.00,,,0.00,TxWx,2013-04-26 10:00:00,
2013-04-26 06:05:00,37.0,35.0,30.38,ESE,112,0.0,0.0,92,0.00,,,0.00,TxWx,2013-04-26 10:05:00,
2013-04-26 06:10:00,37.0,35.0,30.39,WNW,292,0.0,0.0,92,0.00,,,0.00,TxWx,2013-04-26 10:10:00,
2013-04-26 06:16:00,37.0,35.0,30.39,North,0,0.0,0.0,92,0.00,,,0.00,TxWx,2013-04-26 10:16:00,
2013-04-26 06:21:00,37.0,35.0,30.39,East,90,0.0,1.0,92,0.00,,,0.00,TxWx,2013-04-26 10:21:00,
2013-04-26 06:26:00,38.0,36.0,30.40,ENE,67,0.0,0.0,92,0.00,,,0.00,TxWx,2013-04-26 10:26:00,
2013-04-26 06:31:00,38.0,36.0,30.40,NE,45,0.0,1.0,92,0.00,,,0.00,TxWx,2013-04-26 10:31:00,
2013-04-26 06:36:00,38.0,36.0,30.40,North,0,0.0,1.0,92,0.00,,,0.00,TxWx,2013-04-26 10:36:00,
2013-04-26 06:41:00,39.0,37.0,30.41,NE,45,1.0,2.0,92,0.00,,,0.00,TxWx,2013-04-26 10:41:00,
2013-04-26 06:46:00,39.0,37.0,30.41,ESE,112,0.0,0.0,91,0.00,,,0.00,TxWx,2013-04-26 10:46:00,
2013-04-26 06:51:00,39.0,36.0,30.41,ENE,67,0.0,1.0,91,0.00,,,0.00,TxWx,2013-04-26 10:51:00,
2013-04-26 06:56:00,39.0,36.0,30.41,ENE,67,0.0,0.0,90,0.00,,,0.00,TxWx,2013-04-26 10:56:00,
2013-04-26 07:01:00,39.0,36.0,30.42,East,90,0.0,0.0,90,0.00,,,0.00,TxWx,2013-04-26 11:01:00,
2013-04-26 07:06:00,39.0,36.0,30.42,ENE,67,0.0,0.0,90,0.00,,,0.00,TxWx,2013-04-26 11:06:00,
2013-04-26 07:11:00,40.0,37.0,30.43,ESE,112,0.0,0.0,90,0.00,,,0.00,TxWx,2013-04-26 11:11:00,
2013-04-26 07:16:00,40.0,37.0,30.43,SE,135,0.0,0.0,89,0.00,,,0.00,TxWx,2013-04-26 11:16:00,
2013-04-26 07:22:00,40.0,37.0,30.43,SE,135,0.0,1.0,89,0.00,,,0.00,TxWx,2013-04-26 11:22:00,
2013-04-26 07:27:00,41.0,38.0,30.43,WSW,247,4.0,5.0,89,0.00,,,0.00,TxWx,2013-04-26 11:27:00,
2013-04-26 07:32:00,42.0,39.0,30.43,SSW,202,4.0,5.0,88,0.00,,,0.00,TxWx,2013-04-26 11:32:00,
2013-04-26 07:37:00,44.0,40.0,30.43,South,180,4.0,5.0,87,0.00,,,0.00,TxWx,2013-04-26 11:37:00,
2013-04-26 07:42:00,44.0,40.0,30.43,WNW,292,1.0,3.0,86,0.00,,,0.00,TxWx,2013-04-26 11:42:00,
2013-04-26 07:47:00,45.0,41.0,30.43,SW,225,5.0,5.0,85,0.00,,,0.00,TxWx,2013-04-26 11:47:00,
2013-04-26 07:52:00,45.0,40.0,30.44,NW,315,2.0,3.0,84,0.00,,,0.00,TxWx,2013-04-26 11:52:00,
2013-04-26 07:57:00,46.0,41.0,30.43,NNW,337,3.0,3.0,83,0.00,,,0.00,TxWx,2013-04-26 11:57:00,
2013-04-26 08:02:00,46.0,41.0,30.44,SW,225,6.0,6.0,82,0.00,,,0.00,TxWx,2013-04-26 12:02:00,
2013-04-26 08:07:00,46.0,40.0,30.44,West,270,5.0,6.0,81,0.00,,,0.00,TxWx,2013-04-26 12:07:00,
2013-04-26 08:12:00,46.0,40.0,30.44,ESE,112,0.0,1.0,81,0.00,,,0.00,TxWx,2013-04-26 12:12:00,
2013-04-26 08:17:00,46.0,40.0,30.45,West,270,4.0,5.0,81,0.00,,,0.00,TxWx,2013-04-26 12:17:00,
2013-04-26 08:23:00,46.0,40.0,30.45,NW,315,3.0,3.0,81,0.00,,,0.00,TxWx,2013-04-26 12:23:00,
2013-04-26 08:28:00,46.0,40.0,30.45,West,270,3.0,5.0,80,0.00,,,0.00,TxWx,2013-04-26 12:28:00,
2013-04-26 08:33:00,46.0,40.0,30.45,WSW,247,4.0,4.0,80,0.00,,,0.00,TxWx,2013-04-26 12:33:00,
2013-04-26 08:38:00,47.0,41.0,30.45,SW,225,6.0,8.0,80,0.00,,,0.00,TxWx,2013-04-26 12:38:00,
2013-04-26 08:43:00,47.0,40.0,30.45,NW,315,3.0,6.0,78,0.00,,,0.00,TxWx,2013-04-26 12:43:00,
2013-04-26 08:48:00,47.0,40.0,30.45,NNW,337,9.0,13.0,77,0.00,,,0.00,TxWx,2013-04-26 12:48:00,
2013-04-26 08:53:00,47.0,40.0,30.45,North,0,4.0,5.0,77,0.00,,,0.00,TxWx,2013-04-26 12:53:00,
2013-04-26 08:58:00,47.0,40.0,30.46,WNW,292,8.0,10.0,76,0.00,,,0.00,TxWx,2013-04-26 12:58:00,
2013-04-26 09:03:00,46.0,39.0,30.46,WNW,292,5.0,5.0,77,0.00,,,0.00,TxWx,2013-04-26 13:03:00,
2013-04-26 09:08:00,47.0,40.0,30.46,NW,315,7.0,8.0,77,0.00,,,0.00,TxWx,2013-04-26 13:08:00,
2013-04-26 09:13:00,47.0,40.0,30.46,WNW,292,3.0,3.0,76,0.00,,,0.00,TxWx,2013-04-26 13:13:00,
2013-04-26 09:18:00,47.0,40.0,30.46,SW,225,3.0,5.0,77,0.00,,,0.00,TxWx,2013-04-26 13:18:00,
2013-04-26 09:24:00,47.0,40.0,30.46,SW,225,6.0,8.0,77,0.00,,,0.00,TxWx,2013-04-26 13:24:00,
2013-04-26 09:29:00,47.0,40.0,30.46,West,270,5.0,6.0,76,0.00,,,0.00,TxWx,2013-04-26 13:29:00,
2013-04-26 09:34:00,47.0,40.0,30.46,West,270,3.0,3.0,77,0.00,,,0.00,TxWx,2013-04-26 13:34:00,
2013-04-26 09:39:00,47.0,40.0,30.46,SW,225,5.0,5.0,76,0.00,,,0.00,TxWx,2013-04-26 13:39:00,
2013-04-26 09:44:00,46.0,39.0,30.46,WSW,247,6.0,8.0,76,0.00,,,0.00,TxWx,2013-04-26 13:44:00,
2013-04-26 09:49:00,47.0,40.0,30.46,WSW,247,2.0,3.0,76,0.00,,,0.00,TxWx,2013-04-26 13:49:00,
2013-04-26 09:54:00,47.0,40.0,30.46,West,270,3.0,4.0,76,0.00,,,0.00,TxWx,2013-04-26 13:54:00,
2013-04-26 09:59:00,47.0,40.0,30.46,WSW,247,5.0,5.0,76,0.00,,,0.00,TxWx,2013-04-26 13:59:00,
2013-04-26 10:04:00,47.0,40.0,30.46,WSW,247,5.0,5.0,76,0.00,,,0.00,TxWx,2013-04-26 14:04:00,
2013-04-26 10:09:00,47.0,39.0,30.46,West,270,6.0,6.0,75,0.00,,,0.00,TxWx,2013-04-26 14:09:00,
2013-04-26 10:14:00,48.0,40.0,30.46,WSW,247,4.0,5.0,75,0.00,,,0.00,TxWx,2013-04-26 14:14:00,
2013-04-26 10:20:00,48.0,40.0,30.46,North,0,3.0,3.0,74,0.00,,,0.00,TxWx,2013-04-26 14:20:00,
2013-04-26 10:25:00,48.0,40.0,30.46,WNW,292,3.0,6.0,73,0.00,,,0.00,TxWx,2013-04-26 14:25:00,
2013-04-26 10:30:00,48.0,39.0,30.46,NNW,337,2.0,3.0,72,0.00,,,0.00,TxWx,2013-04-26 14:30:00,
2013-04-26 10:35:00,49.0,40.0,30.46,North,0,2.0,3.0,71,0.00,,,0.00,TxWx,2013-04-26 14:35:00,
2013-04-26 10:40:00,49.0,39.0,30.46,South,180,5.0,7.0,69,0.00,,,0.00,TxWx,2013-04-26 14:40:00,
2013-04-26 10:45:00,49.0,39.0,30.46,West,270,3.0,5.0,69,0.00,,,0.00,TxWx,2013-04-26 14:45:00,
2013-04-26 10:50:00,50.0,39.0,30.46,SSE,157,3.0,3.0,67,0.00,,,0.00,TxWx,2013-04-26 14:50:00,
2013-04-26 10:55:00,50.0,39.0,30.46,WSW,247,5.0,5.0,65,0.00,,,0.00,TxWx,2013-04-26 14:55:00,
2013-04-26 11:00:00,51.0,39.0,30.46,North,0,5.0,6.0,64,0.00,,,0.00,TxWx,2013-04-26 15:00:00,
2013-04-26 11:04:00,53.0,30.0,30.44,West,270,2.0,3.0,43,0.00,,,0.00,TxWx,2013-04-26 15:04:00,
2013-04-26 11:05:00,51.0,39.0,30.46,WNW,292,7.0,7.0,63,0.00,,,0.00,TxWx,2013-04-26 15:05:00,
2013-04-26 11:10:00,51.0,38.0,30.46,WNW,292,4.0,6.0,62,0.00,,,0.00,TxWx,2013-04-26 15:10:00,
2013-04-26 11:16:00,52.0,39.0,30.45,NNE,22,3.0,4.0,62,0.00,,,0.00,TxWx,2013-04-26 15:16:00,
2013-04-26 11:21:00,52.0,38.0,30.45,NW,315,6.0,6.0,60,0.00,,,0.00,TxWx,2013-04-26 15:21:00,
2013-04-26 11:26:00,52.0,38.0,30.45,NNE,22,6.0,7.0,60,0.00,,,0.00,TxWx,2013-04-26 15:26:00,
2013-04-26 11:31:00,52.0,39.0,30.45,NW,315,3.0,3.0,60,0.00,,,0.00,TxWx,2013-04-26 15:31:00,
2013-04-26 11:36:00,51.0,37.0,30.45,NNW,337,3.0,3.0,58,0.00,,,0.00,TxWx,2013-04-26 15:36:00,
2013-04-26 11:41:00,52.0,37.0,30.44,West,270,5.0,5.0,57,0.00,,,0.00,TxWx,2013-04-26 15:41:00,
2013-04-26 11:46:00,52.0,36.0,30.44,NW,315,7.0,8.0,55,0.00,,,0.00,TxWx,2013-04-26 15:46:00,
2013-04-26 11:51:00,52.0,35.0,30.44,West,270,9.0,9.0,53,0.00,,,0.00,TxWx,2013-04-26 15:51:00,
2013-04-26 11:56:00,52.0,35.0,30.44,SSW,202,4.0,4.0,53,0.00,,,0.00,TxWx,2013-04-26 15:56:00,
2013-04-26 12:01:00,53.0,35.0,30.43,NNE,22,5.0,6.0,50,0.00,,,0.00,TxWx,2013-04-26 16:01:00,
2013-04-26 12:06:00,53.0,34.0,30.44,South,180,5.0,7.0,49,0.00,,,0.00,TxWx,2013-04-26 16:06:00,
2013-04-26 12:12:00,53.0,34.0,30.43,WNW,292,6.0,8.0,49,0.00,,,0.00,TxWx,2013-04-26 16:12:00,
2013-04-26 12:17:00,53.0,34.0,30.43,West,270,3.0,3.0,49,0.00,,,0.00,TxWx,2013-04-26 16:17:00,
2013-04-26 12:22:00,54.0,34.0,30.43,WNW,292,11.0,11.0,46,0.00,,,0.00,TxWx,2013-04-26 16:22:00,
2013-04-26 12:27:00,54.0,33.0,30.43,NW,315,4.0,5.0,45,0.00,,,0.00,TxWx,2013-04-26 16:27:00,
2013-04-26 12:32:00,55.0,34.0,30.43,WSW,247,8.0,10.0,45,0.00,,,0.00,TxWx,2013-04-26 16:32:00,
2013-04-26 12:37:00,55.0,35.0,30.42,NW,315,3.0,5.0,46,0.00,,,0.00,TxWx,2013-04-26 16:37:00,
2013-04-26 12:42:00,55.0,34.0,30.42,SW,225,4.0,5.0,46,0.00,,,0.00,TxWx,2013-04-26 16:42:00,
2013-04-26 12:47:00,56.0,35.0,30.42,WNW,292,6.0,8.0,45,0.00,,,0.00,TxWx,2013-04-26 16:47:00,
2013-04-26 12:52:00,55.0,33.0,30.42,WNW,292,10.0,13.0,43,0.00,,,0.00,TxWx,2013-04-26 16:52:00,
2013-04-26 12:57:00,55.0,33.0,30.42,West,270,4.0,5.0,44,0.00,,,0.00,TxWx,2013-04-26 16:57:00,
2013-04-26 13:03:00,55.0,33.0,30.42,NE,45,3.0,4.0,43,0.00,,,0.00,TxWx,2013-04-26 17:03:00,
2013-04-26 13:08:00,55.0,32.0,30.42,West,270,5.0,6.0,42,0.00,,,0.00,TxWx,2013-04-26 17:08:00,
2013-04-26 13:13:00,56.0,33.0,30.42,NNW,337,5.0,5.0,41,0.00,,,0.00,TxWx,2013-04-26 17:13:00,
2013-04-26 13:18:00,56.0,33.0,30.42,WNW,292,5.0,5.0,42,0.00,,,0.00,TxWx,2013-04-26 17:18:00,
2013-04-26 13:23:00,56.0,32.0,30.42,SSE,157,3.0,5.0,41,0.00,,,0.00,TxWx,2013-04-26 17:23:00,
2013-04-26 13:28:00,56.0,33.0,30.42,West,270,11.0,16.0,43,0.00,,,0.00,TxWx,2013-04-26 17:28:00,
2013-04-26 13:33:00,56.0,34.0,30.42,NW,315,3.0,5.0,43,0.00,,,0.00,TxWx,2013-04-26 17:33:00,
2013-04-26 13:38:00,56.0,33.0,30.41,WNW,292,5.0,5.0,42,0.00,,,0.00,TxWx,2013-04-26 17:38:00,
2013-04-26 13:43:00,56.0,32.0,30.41,West,270,2.0,5.0,41,0.00,,,0.00,TxWx,2013-04-26 17:43:00,
2013-04-26 13:48:00,57.0,33.0,30.41,North,0,5.0,7.0,40,0.00,,,0.00,TxWx,2013-04-26 17:48:00,
2013-04-26 13:53:00,56.0,30.0,30.42,WNW,292,8.0,10.0,39,0.00,,,0.00,TxWx,2013-04-26 17:53:00,
2013-04-26 13:59:00,56.0,30.0,30.41,NNE,22,2.0,5.0,39,0.00,,,0.00,TxWx,2013-04-26 17:59:00,
2013-04-26 14:04:00,57.0,33.0,30.41,WSW,247,11.0,11.0,40,0.00,,,0.00,TxWx,2013-04-26 18:04:00,
2013-04-26 14:09:00,57.0,33.0,30.41,WNW,292,5.0,5.0,40,0.00,,,0.00,TxWx,2013-04-26 18:09:00,
2013-04-26 14:14:00,57.0,32.0,30.41,WSW,247,3.0,5.0,39,0.00,,,0.00,TxWx,2013-04-26 18:14:00,
2013-04-26 14:19:00,57.0,31.0,30.41,NNW,337,3.0,4.0,38,0.00,,,0.00,TxWx,2013-04-26 18:19:00,
2013-04-26 14:24:00,57.0,30.0,30.41,SW,225,10.0,11.0,37,0.00,,,0.00,TxWx,2013-04-26 18:24:00,
2013-04-26 14:29:00,56.0,29.0,30.41,WSW,247,3.0,4.0,37,0.00,,,0.00,TxWx,2013-04-26 18:29:00,
2013-04-26 14:34:00,56.0,30.0,30.41,West,270,6.0,10.0,39,0.00,,,0.00,TxWx,2013-04-26 18:34:00,
2013-04-26 14:39:00,57.0,31.0,30.41,SW,225,7.0,11.0,39,0.00,,,0.00,TxWx,2013-04-26 18:39:00,
2013-04-26 14:44:00,57.0,31.0,30.41,WSW,247,12.0,12.0,39,0.00,,,0.00,TxWx,2013-04-26 18:44:00,
2013-04-26 14:49:00,57.0,31.0,30.41,SSW,202,7.0,11.0,39,0.00,,,0.00,TxWx,2013-04-26 18:49:00,
2013-04-26 14:54:00,43.0,33.0,30.46,WSW,247,0.0,0.0,67,0.00,,,0.00,TxWx,2013-04-26 18:54:00,
2013-04-26 14:55:00,58.0,32.0,30.41,West,270,5.0,7.0,38,0.00,,,0.00,TxWx,2013-04-26 18:55:00,
2013-04-26 14:56:00,43.0,33.0,30.46,SW,225,0.0,0.0,67,0.00,,,0.00,TxWx,2013-04-26 18:56:00,
2013-04-26 14:57:00,43.0,33.0,30.46,SSW,202,0.0,0.0,67,0.00,,,0.00,TxWx,2013-04-26 18:57:00,
2013-04-26 14:58:00,43.0,33.0,30.46,SSE,157,0.0,0.0,67,0.00,,,0.00,TxWx,2013-04-26 18:58:00,
2013-04-26 15:00:00,57.0,31.0,30.41,NW,315,8.0,15.0,38,0.00,,,0.00,TxWx,2013-04-26 19:00:00,
2013-04-26 15:01:00,43.0,33.0,30.46,SE,135,0.0,0.0,67,0.00,,,0.00,TxWx,2013-04-26 19:01:00,
2013-04-26 15:02:00,43.0,33.0,30.46,SE,135,0.0,0.0,67,0.00,,,0.00,TxWx,2013-04-26 19:02:00,
2013-04-26 15:03:00,43.0,33.0,30.46,South,180,0.0,0.0,68,0.00,,,0.00,TxWx,2013-04-26 19:03:00,
2013-04-26 15:04:00,43.0,33.0,30.46,SW,225,0.0,0.0,68,0.00,,,0.00,TxWx,2013-04-26 19:04:00,
2013-04-26 15:05:00,57.0,32.0,30.41,NNW,337,3.0,5.0,39,0.00,,,0.00,TxWx,2013-04-26 19:05:00,
2013-04-26 15:06:00,43.0,33.0,30.46,SSE,157,0.0,0.0,68,0.00,,,0.00,TxWx,2013-04-26 19:06:00,
2013-04-26 15:10:00,57.0,31.0,30.41,East,90,1.0,2.0,39,0.00,,,0.00,TxWx,2013-04-26 19:10:00,
2013-04-26 15:15:00,57.0,31.0,30.40,NW,315,5.0,7.0,38,0.00,,,0.00,TxWx,2013-04-26 19:15:00,
2013-04-26 15:16:00,42.0,33.0,30.46,East,90,0.0,0.0,69,0.00,,,0.00,TxWx,2013-04-26 19:16:00,
2013-04-26 15:17:00,42.0,33.0,30.46,East,90,0.0,0.0,69,0.00,,,0.00,TxWx,2013-04-26 19:17:00,
2013-04-26 15:20:00,57.0,31.0,30.40,WNW,292,13.0,13.0,38,0.00,,,0.00,TxWx,2013-04-26 19:20:00,
2013-04-26 15:25:00,57.0,31.0,30.40,NNE,22,3.0,5.0,39,0.00,,,0.00,TxWx,2013-04-26 19:25:00,
2013-04-26 15:29:00,42.0,33.0,30.47,SSW,202,0.0,0.0,71,0.00,,,0.00,TxWx,2013-04-26 19:29:00,
2013-04-26 15:30:00,57.0,31.0,30.40,NE,45,2.0,3.0,39,0.00,,,0.00,TxWx,2013-04-26 19:30:00,
2013-04-26 15:31:00,42.0,33.0,30.47,WSW,247,0.0,0.0,71,0.00,,,0.00,TxWx,2013-04-26 19:31:00,
2013-04-26 15:32:00,42.0,33.0,30.47,South,180,0.0,0.0,71,0.00,,,0.00,TxWx,2013-04-26 19:32:00,
2013-04-26 15:35:00,58.0,33.0,30.40,West,270,8.0,10.0,39,0.00,,,0.00,TxWx,2013-04-26 19:35:00,
2013-04-26 15:40:00,58.0,32.0,30.40,North,0,6.0,8.0,38,0.00,,,0.00,TxWx,2013-04-26 19:40:00,
2013-04-26 15:46:00,58.0,32.0,30.40,West,270,8.0,8.0,38,0.00,,,0.00,TxWx,2013-04-26 19:46:00,
2013-04-26 15:51:00,58.0,32.0,30.40,West,270,9.0,14.0,38,0.00,,,0.00,TxWx,2013-04-26 19:51:00,
2013-04-26 15:56:00,58.0,33.0,30.40,NW,315,6.0,7.0,39,0.00,,,0.00,TxWx,2013-04-26 19:56:00,
2013-04-26 16:01:00,58.0,33.0,30.40,WNW,292,5.0,8.0,39,0.00,,,0.00,TxWx,2013-04-26 20:01:00,
2013-04-26 16:06:00,58.0,33.0,30.40,West,270,8.0,11.0,39,0.00,,,0.00,TxWx,2013-04-26 20:06:00,
2013-04-26 16:11:00,58.0,33.0,30.40,West,270,7.0,7.0,39,0.00,,,0.00,TxWx,2013-04-26 20:11:00,
2013-04-26 16:16:00,58.0,32.0,30.40,NNW,337,10.0,11.0,38,0.00,,,0.00,TxWx,2013-04-26 20:16:00,
2013-04-26 16:21:00,58.0,33.0,30.40,NNW,337,8.0,8.0,39,0.00,,,0.00,TxWx,2013-04-26 20:21:00,
2013-04-26 16:26:00,58.0,32.0,30.41,West,270,11.0,13.0,38,0.00,,,0.00,TxWx,2013-04-26 20:26:00,
2013-04-26 16:31:00,58.0,33.0,30.41,WSW,247,8.0,8.0,39,0.00,,,0.00,TxWx,2013-04-26 20:31:00,
2013-04-26 16:36:00,57.0,31.0,30.41,WNW,292,5.0,7.0,39,0.00,,,0.00,TxWx,2013-04-26 20:36:00,
2013-04-26 16:41:00,57.0,31.0,30.41,WNW,292,9.0,11.0,39,0.00,,,0.00,TxWx,2013-04-26 20:41:00,
2013-04-26 16:47:00,57.0,33.0,30.41,NW,315,5.0,8.0,40,0.00,,,0.00,TxWx,2013-04-26 20:47:00,
2013-04-26 16:52:00,57.0,33.0,30.41,WNW,292,6.0,6.0,40,0.00,,,0.00,TxWx,2013-04-26 20:52:00,
2013-04-26 16:57:00,57.0,31.0,30.41,West,270,9.0,9.0,39,0.00,,,0.00,TxWx,2013-04-26 20:57:00,
2013-04-26 17:02:00,57.0,31.0,30.41,WSW,247,8.0,10.0,39,0.00,,,0.00,TxWx,2013-04-26 21:02:00,
2013-04-26 17:07:00,57.0,32.0,30.41,SW,225,5.0,6.0,39,0.00,,,0.00,TxWx,2013-04-26 21:07:00,
2013-04-26 17:11:00,39.0,34.0,30.46,SSE,157,0.0,0.0,81,0.00,,,0.00,TxWx,2013-04-26 21:11:00,
2013-04-26 17:12:00,57.0,31.0,30.41,SSW,202,10.0,12.0,39,0.00,,,0.00,TxWx,2013-04-26 21:12:00,
2013-04-26 17:13:00,39.0,34.0,30.46,SSE,157,0.0,0.0,82,0.00,,,0.00,TxWx,2013-04-26 21:13:00,
2013-04-26 17:14:00,39.0,34.0,30.46,SE,135,0.0,0.0,82,0.00,,,0.00,TxWx,2013-04-26 21:14:00,
2013-04-26 17:15:00,39.0,34.0,30.46,SSE,157,0.0,0.0,82,0.00,,,0.00,TxWx,2013-04-26 21:15:00,
2013-04-26 17:16:00,39.0,34.0,30.46,SSE,157,0.0,0.0,82,0.00,,,0.00,TxWx,2013-04-26 21:16:00,
2013-04-26 17:17:00,57.0,31.0,30.41,South,180,7.0,8.0,39,0.00,,,0.00,TxWx,2013-04-26 21:17:00,
2013-04-26 17:18:00,39.0,34.0,30.46,WNW,292,0.0,0.0,82,0.00,,,0.00,TxWx,2013-04-26 21:18:00,
2013-04-26 17:19:00,39.0,34.0,30.46,WNW,292,0.0,0.0,82,0.00,,,0.00,TxWx,2013-04-26 21:19:00,
2013-04-26 17:20:00,39.0,34.0,30.46,North,0,0.0,0.0,82,0.00,,,0.00,TxWx,2013-04-26 21:20:00,
2013-04-26 17:21:00,39.0,34.0,30.46,North,0,0.0,0.0,82,0.00,,,0.00,TxWx,2013-04-26 21:21:00,
2013-04-26 17:22:00,57.0,30.0,30.41,NNW,337,5.0,8.0,37,0.00,,,0.00,TxWx,2013-04-26 21:22:00,
2013-04-26 17:23:00,39.0,34.0,30.46,ESE,112,0.0,0.0,82,0.00,,,0.00,TxWx,2013-04-26 21:23:00,
2013-04-26 17:27:00,57.0,30.0,30.41,WNW,292,5.0,6.0,38,0.00,,,0.00,TxWx,2013-04-26 21:27:00,
2013-04-26 17:30:00,39.0,34.0,30.46,NNE,22,0.0,0.0,82,0.00,,,0.00,TxWx,2013-04-26 21:30:00,
2013-04-26 17:31:00,39.0,34.0,30.46,NNE,22,0.0,0.0,82,0.00,,,0.00,TxWx,2013-04-26 21:31:00,
2013-04-26 17:32:00,57.0,31.0,30.42,West,270,7.0,7.0,38,0.00,,,0.00,TxWx,2013-04-26 21:32:00,
2013-04-26 17:33:00,39.0,34.0,30.45,North,0,0.0,0.0,82,0.00,,,0.00,TxWx,2013-04-26 21:33:00,
2013-04-26 17:34:00,39.0,34.0,30.45,North,0,0.0,0.0,82,0.00,,,0.00,TxWx,2013-04-26 21:34:00,
2013-04-26 17:35:00,39.0,34.0,30.46,North,0,0.0,0.0,83,0.00,,,0.00,TxWx,2013-04-26 21:35:00,
2013-04-26 17:36:00,39.0,34.0,30.46,ESE,112,0.0,0.0,83,0.00,,,0.00,TxWx,2013-04-26 21:36:00,
2013-04-26 17:38:00,57.0,31.0,30.42,SSW,202,7.0,10.0,38,0.00,,,0.00,TxWx,2013-04-26 21:38:00,
2013-04-26 17:43:00,57.0,31.0,30.42,WSW,247,4.0,10.0,38,0.00,,,0.00,TxWx,2013-04-26 21:43:00,
2013-04-26 17:48:00,57.0,30.0,30.41,SSW,202,3.0,6.0,38,0.00,,,0.00,TxWx,2013-04-26 21:48:00,
2013-04-26 17:53:00,57.0,31.0,30.41,SSW,202,8.0,8.0,38,0.00,,,0.00,TxWx,2013-04-26 21:53:00,
2013-04-26 17:58:00,57.0,31.0,30.42,West,270,8.0,8.0,38,0.00,,,0.00,TxWx,2013-04-26 21:58:00,
2013-04-26 18:03:00,56.0,29.0,30.42,SW,225,5.0,7.0,38,0.00,,,0.00,TxWx,2013-04-26 22:03:00,
2013-04-26 18:08:00,56.0,30.0,30.42,West,270,6.0,9.0,38,0.00,,,0.00,TxWx,2013-04-26 22:08:00,
2013-04-26 18:13:00,56.0,29.0,30.42,NW,315,6.0,6.0,38,0.00,,,0.00,TxWx,2013-04-26 22:13:00,
2013-04-26 18:18:00,56.0,29.0,30.42,WSW,247,8.0,10.0,38,0.00,,,0.00,TxWx,2013-04-26 22:18:00,
2013-04-26 18:23:00,56.0,30.0,30.42,West,270,6.0,6.0,38,0.00,,,0.00,TxWx,2013-04-26 22:23:00,
2013-04-26 18:28:00,56.0,30.0,30.42,WSW,247,6.0,8.0,38,0.00,,,0.00,TxWx,2013-04-26 22:28:00,
2013-04-26 18:31:00,38.0,34.0,30.45,SE,135,0.0,0.0,84,0.00,,,0.00,TxWx,2013-04-26 22:31:00,
2013-04-26 18:32:00,38.0,34.0,30.45,SE,135,0.0,0.0,84,0.00,,,0.00,TxWx,2013-04-26 22:32:00,
2013-04-26 18:33:00,56.0,30.0,30.42,WNW,292,6.0,8.0,38,0.00,,,0.00,TxWx,2013-04-26 22:33:00,
2013-04-26 18:38:00,56.0,30.0,30.42,NNW,337,3.0,5.0,38,0.00,,,0.00,TxWx,2013-04-26 22:38:00,
2013-04-26 18:41:00,37.0,33.0,30.45,ENE,67,0.0,0.0,84,0.00,,,0.00,TxWx,2013-04-26 22:41:00,
2013-04-26 18:44:00,56.0,30.0,30.42,West,270,2.0,4.0,39,0.00,,,0.00,TxWx,2013-04-26 22:44:00,
2013-04-26 18:49:00,55.0,29.0,30.42,WNW,292,6.0,10.0,39,0.00,,,0.00,TxWx,2013-04-26 22:49:00,
2013-04-26 18:54:00,56.0,31.0,30.42,West,270,2.0,3.0,40,0.00,,,0.00,TxWx,2013-04-26 22:54:00,
2013-04-26 18:59:00,55.0,30.0,30.42,WNW,292,4.0,5.0,40,0.00,,,0.00,TxWx,2013-04-26 22:59:00,
2013-04-26 19:04:00,55.0,30.0,30.42,WSW,247,6.0,8.0,40,0.00,,,0.00,TxWx,2013-04-26 23:04:00,
2013-04-26 19:09:00,55.0,30.0,30.42,West,270,6.0,7.0,41,0.00,,,0.00,TxWx,2013-04-26 23:09:00,
2013-04-26 19:14:00,55.0,30.0,30.43,NW,315,4.0,5.0,41,0.00,,,0.00,TxWx,2013-04-26 23:14:00,
2013-04-26 19:19:00,54.0,30.0,30.43,WNW,292,8.0,8.0,42,0.00,,,0.00,TxWx,2013-04-26 23:19:00,
2013-04-26 19:24:00,54.0,31.0,30.43,NW,315,5.0,5.0,43,0.00,,,0.00,TxWx,2013-04-26 23:24:00,
2013-04-26 19:29:00,54.0,31.0,30.43,SW,225,4.0,4.0,43,0.00,,,0.00,TxWx,2013-04-26 23:29:00,
2013-04-26 19:35:00,54.0,31.0,30.43,SW,225,6.0,7.0,43,0.00,,,0.00,TxWx,2013-04-26 23:35:00,
2013-04-26 19:40:00,54.0,32.0,30.43,SSW,202,5.0,6.0,44,0.00,,,0.00,TxWx,2013-04-26 23:40:00,
2013-04-26 19:45:00,53.0,30.0,30.43,SW,225,4.0,5.0,44,0.00,,,0.00,TxWx,2013-04-26 23:45:00,
2013-04-26 19:50:00,53.0,30.0,30.43,WSW,247,3.0,3.0,44,0.00,,,0.00,TxWx,2013-04-26 23:50:00,
2013-04-26 20:06:00,53.0,30.0,30.44,SW,225,3.0,3.0,43,0.00,,,0.00,TxWx,2013-04-27 00:06:00,
2013-04-26 20:11:00,53.0,30.0,30.44,WNW,292,2.0,3.0,44,0.00,,,0.00,TxWx,2013-04-27 00:11:00,
2013-04-26 20:16:00,52.0,30.0,30.44,West,270,2.0,4.0,44,0.00,,,0.00,TxWx,2013-04-27 00:16:00,
2013-04-26 20:21:00,52.0,30.0,30.44,SSW,202,2.0,3.0,44,0.00,,,0.00,TxWx,2013-04-27 00:21:00,
2013-04-26 20:26:00,52.0,30.0,30.44,West,270,2.0,3.0,45,0.00,,,0.00,TxWx,2013-04-27 00:26:00,
2013-04-26 20:31:00,52.0,30.0,30.44,SW,225,1.0,2.0,45,0.00,,,0.00,TxWx,2013-04-27 00:31:00,
2013-04-26 20:36:00,52.0,30.0,30.44,SSE,157,0.0,1.0,45,0.00,,,0.00,TxWx,2013-04-27 00:36:00,
2013-04-26 20:41:00,52.0,31.0,30.44,SSW,202,2.0,2.0,46,0.00,,,0.00,TxWx,2013-04-27 00:41:00,
2013-04-26 20:46:00,52.0,31.0,30.45,SSE,157,1.0,1.0,46,0.00,,,0.00,TxWx,2013-04-27 00:46:00,
2013-04-26 20:51:00,51.0,30.0,30.45,SSE,157,2.0,3.0,47,0.00,,,0.00,TxWx,2013-04-27 00:51:00,
2013-04-26 20:57:00,51.0,30.0,30.44,SE,135,0.0,1.0,47,0.00,,,0.00,TxWx,2013-04-27 00:57:00,
2013-04-26 21:02:00,51.0,31.0,30.45,SW,225,1.0,3.0,48,0.00,,,0.00,TxWx,2013-04-27 01:02:00,
2013-04-26 21:07:00,51.0,31.0,30.45,SSE,157,1.0,1.0,48,0.00,,,0.00,TxWx,2013-04-27 01:07:00,
2013-04-26 21:12:00,51.0,32.0,30.45,South,180,1.0,1.0,49,0.00,,,0.00,TxWx,2013-04-27 01:12:00,
2013-04-26 21:17:00,51.0,32.0,30.45,South,180,0.0,0.0,49,0.00,,,0.00,TxWx,2013-04-27 01:17:00,
2013-04-26 21:22:00,51.0,32.0,30.45,West,270,3.0,3.0,49,0.00,,,0.00,TxWx,2013-04-27 01:22:00,
2013-04-26 21:27:00,50.0,31.0,30.45,SE,135,0.0,1.0,49,0.00,,,0.00,TxWx,2013-04-27 01:27:00,
2013-04-26 21:32:00,50.0,31.0,30.45,SE,135,0.0,0.0,50,0.00,,,0.00,TxWx,2013-04-27 01:32:00,
2013-04-26 21:37:00,50.0,32.0,30.45,SSW,202,0.0,1.0,50,0.00,,,0.00,TxWx,2013-04-27 01:37:00,
2013-04-26 21:42:00,50.0,33.0,30.45,East,90,0.0,0.0,51,0.00,,,0.00,TxWx,2013-04-27 01:42:00,
2013-04-26 21:47:00,50.0,33.0,30.45,East,90,0.0,0.0,53,0.00,,,0.00,TxWx,2013-04-27 01:47:00,
2013-04-26 21:52:00,49.0,33.0,30.46,NNE,22,0.0,0.0,54,0.00,,,0.00,TxWx,2013-04-27 01:52:00,
2013-04-26 21:57:00,49.0,34.0,30.46,NNE,22,0.0,0.0,56,0.00,,,0.00,TxWx,2013-04-27 01:57:00,
2013-04-26 22:03:00,48.0,33.0,30.46,ENE,67,0.0,0.0,56,0.00,,,0.00,TxWx,2013-04-27 02:03:00,
2013-04-26 22:08:00,48.0,33.0,30.46,SSE,157,0.0,1.0,56,0.00,,,0.00,TxWx,2013-04-27 02:08:00,
2013-04-26 22:13:00,48.0,33.0,30.46,South,180,1.0,2.0,55,0.00,,,0.00,TxWx,2013-04-27 02:13:00,
2013-04-26 22:18:00,48.0,32.0,30.46,SW,225,1.0,2.0,55,0.00,,,0.00,TxWx,2013-04-27 02:18:00,
2013-04-26 22:23:00,48.0,32.0,30.46,ENE,67,0.0,0.0,55,0.00,,,0.00,TxWx,2013-04-27 02:23:00,
2013-04-26 22:28:00,48.0,33.0,30.46,SE,135,0.0,0.0,55,0.00,,,0.00,TxWx,2013-04-27 02:28:00,
2013-04-26 22:33:00,48.0,33.0,30.46,ESE,112,0.0,0.0,56,0.00,,,0.00,TxWx,2013-04-27 02:33:00,
2013-04-26 22:38:00,48.0,34.0,30.46,ESE,112,0.0,0.0,58,0.00,,,0.00,TxWx,2013-04-27 02:38:00,
2013-04-26 22:43:00,47.0,34.0,30.46,East,90,0.0,1.0,60,0.00,,,0.00,TxWx,2013-04-27 02:43:00,
2013-04-26 22:48:00,47.0,34.0,30.46,East,90,0.0,0.0,61,0.00,,,0.00,TxWx,2013-04-27 02:48:00,
2013-04-26 22:53:00,47.0,35.0,30.46,NE,45,0.0,1.0,64,0.00,,,0.00,TxWx,2013-04-27 02:53:00,
2013-04-26 22:58:00,46.0,36.0,30.46,NE,45,0.0,1.0,65,0.00,,,0.00,TxWx,2013-04-27 02:58:00,
2013-04-26 23:03:00,46.0,35.0,30.46,North,0,0.0,1.0,65,0.00,,,0.00,TxWx,2013-04-27 03:03:00,
2013-04-26 23:09:00,46.0,35.0,30.46,NNW,337,0.0,0.0,65,0.00,,,0.00,TxWx,2013-04-27 03:09:00,
2013-04-26 23:14:00,45.0,34.0,30.46,WSW,247,0.0,0.0,65,0.00,,,0.00,TxWx,2013-04-27 03:14:00,
2013-04-26 23:19:00,45.0,34.0,30.46,WSW,247,0.0,0.0,65,0.00,,,0.00,TxWx,2013-04-27 03:19:00,
2013-04-26 23:24:00,45.0,34.0,30.46,WSW,247,0.0,0.0,65,0.00,,,0.00,TxWx,2013-04-27 03:24:00,
2013-04-26 23:29:00,45.0,34.0,30.46,WSW,247,0.0,0.0,65,0.00,,,0.00,TxWx,2013-04-27 03:29:00,
2013-04-26 23:34:00,45.0,34.0,30.46,ENE,67,0.0,1.0,65,0.00,,,0.00,TxWx,2013-04-27 03:34:00,
2013-04-26 23:39:00,44.0,33.0,30.46,NE,45,0.0,0.0,65,0.00,,,0.00,TxWx,2013-04-27 03:39:00,
2013-04-26 23:44:00,44.0,33.0,30.46,ENE,67,0.0,1.0,66,0.00,,,0.00,TxWx,2013-04-27 03:44:00,
2013-04-26 23:49:00,44.0,34.0,30.46,SW,225,0.0,0.0,67,0.00,,,0.00,TxWx,2013-04-27 03:49:00,
2013-04-26 23:58:00,43.0,33.0,30.46,SSE,157,0.0,0.0,67,0.00,,,0.00,TxWx,2013-04-27 03:58:00,